Time;durP1;ratioP1;P1;durP2;ratioP2;P2;SDS_P1;SDS_P2;PMS_P1;PMS_P2;Temp;Humidity;BMP_temperature;BMP_pressure;BME280_temperature;BME280_humidity;BME280_pressure;Samples;Min_cycle;Max_cycle;Signal;HPM_P1;HPM_P2
2022/11/11 00:01:03;;;;;;;35.92;19.45;;;;;;;9.98;74.22;95058.03;5065149;28;20083;-79
2022/11/11 00:03:29;;;;;;;34.15;18.75;;;;;;;9.97;74.19;95040.47;5065106;28;20196;-79
2022/11/11 00:05:59;;;;;;;39.65;19.23;;;;;;;9.98;74.13;95046.59;5065358;28;20066;-79
2022/11/11 00:08:25;;;;;;;40.28;19.20;;;;;;;9.94;74.04;95046.34;5065260;28;20024;-81
2022/11/11 00:10:50;;;;;;;33.28;18.23;;;;;;;9.97;73.80;95045.78;5065195;28;20021;-81
2022/11/11 00:13:16;;;;;;;32.72;18.77;;;;;;;10.03;73.93;95042.00;5065008;28;20020;-80
2022/11/11 00:15:41;;;;;;;34.42;17.50;;;;;;;9.96;74.03;95048.72;5064827;28;20055;-81
2022/11/11 00:26:25;;;;;;;55.15;29.60;;;;;;;9.90;74.26;95060.50;5064915;28;20091;-80
2022/11/11 00:28:51;;;;;;;50.35;28.67;;;;;;;9.92;74.30;95061.00;5064661;28;20029;-80
2022/11/11 00:31:16;;;;;;;55.85;29.52;;;;;;;9.87;74.36;95056.53;5064841;28;20028;-80
2022/11/11 00:33:42;;;;;;;47.40;29.63;;;;;;;9.90;74.19;95060.50;5064528;28;20032;-80
2022/11/11 00:36:07;;;;;;;50.80;28.00;;;;;;;9.86;74.17;95064.78;5064659;28;20029;-80
2022/11/11 00:38:44;;;;;;;44.30;25.33;;;;;;;9.84;74.17;95073.84;5064455;28;20055;-80
2022/11/11 00:41:12;;;;;;;39.53;19.27;;;;;;;9.79;74.80;95060.59;5064607;28;20055;-80
2022/11/11 00:43:38;;;;;;;32.28;19.58;;;;;;;9.80;74.84;95062.16;5064379;28;20318;-80
2022/11/11 00:51:35;;;;;;;39.47;19.55;;;;;;;9.84;74.67;95054.41;5064196;28;20032;-80
2022/11/11 00:54:00;;;;;;;35.47;18.60;;;;;;;9.82;74.67;95068.00;5063814;28;20025;-80
2022/11/11 00:56:26;;;;;;;40.20;20.77;;;;;;;9.82;74.46;95054.69;5064299;28;20043;-81
2022/11/11 00:58:52;;;;;;;34.95;19.15;;;;;;;9.87;74.73;95056.53;5063836;28;20045;-80
2022/11/11 01:01:18;;;;;;;35.45;18.10;;;;;;;9.92;74.42;95056.47;5064169;28;20215;-81
2022/11/11 01:03:43;;;;;;;39.95;19.65;;;;;;;9.91;74.23;95052.25;5064081;28;20058;-81
2022/11/11 01:06:11;;;;;;;38.42;20.17;;;;;;;9.92;74.44;95063.69;5064105;28;20146;-81
2022/11/11 01:08:37;;;;;;;37.83;20.13;;;;;;;9.97;73.96;95052.97;5063902;28;20056;-81
2022/11/11 01:11:02;;;;;;;36.60;20.15;;;;;;;9.97;74.05;95055.63;5063956;28;20033;-80
2022/11/11 01:13:30;;;;;;;35.58;18.70;;;;;;;9.97;73.88;95053.78;5063833;28;20029;-81
2022/11/11 01:16:01;;;;;;;43.35;21.65;;;;;;;10.02;73.67;95042.28;5063608;28;20028;-81
2022/11/11 01:18:27;;;;;;;46.35;20.58;;;;;;;9.97;73.83;95040.47;5063752;28;20029;-82
2022/11/11 01:21:00;;;;;;;35.80;19.48;;;;;;;9.97;73.59;95044.97;5063938;28;20044;-82
2022/11/11 01:23:26;;;;;;;40.85;20.23;;;;;;;9.97;73.66;95045.78;5062514;28;20040;-81
2022/11/11 01:25:52;;;;;;;38.60;20.35;;;;;;;9.93;73.58;95050.09;5063524;28;20028;-80
2022/11/11 01:28:18;;;;;;;35.30;20.20;;;;;;;9.86;73.83;95049.59;5063862;28;20204;-80
2022/11/11 01:30:43;;;;;;;36.22;19.92;;;;;;;9.79;73.64;95055.25;5063521;28;20335;-80
2022/11/11 01:33:10;;;;;;;35.95;20.50;;;;;;;9.71;74.11;95057.69;5063593;28;20310;-80
2022/11/11 01:35:40;;;;;;;40.40;21.05;;;;;;;9.62;74.27;95050.31;5063615;28;20024;-81
2022/11/11 01:38:07;;;;;;;32.45;19.65;;;;;;;9.55;74.76;95057.03;5063399;28;20037;-80
2022/11/11 01:40:44;;;;;;;40.88;22.02;;;;;;;9.46;75.07;95042.72;5063436;28;20025;-81
2022/11/11 01:43:10;;;;;;;39.08;20.42;;;;;;;9.37;75.66;95037.97;5063193;28;20017;-81
2022/11/11 01:45:54;;;;;;;36.15;20.60;;;;;;;9.30;76.30;95042.00;5063344;28;20025;-81
2022/11/11 01:51:19;;;;;;;40.50;20.98;;;;;;;9.25;76.75;95045.50;5063180;28;20096;-81
2022/11/11 01:53:51;;;;;;;41.97;21.42;;;;;;;9.28;76.94;95055.59;5063281;28;20070;-80
2022/11/11 01:56:16;;;;;;;40.80;22.57;;;;;;;9.24;77.20;95060.69;5063273;28;20219;-81
2022/11/11 01:58:42;;;;;;;46.72;23.05;;;;;;;9.24;77.54;95051.91;5061926;28;20045;-80
2022/11/11 02:01:09;;;;;;;43.10;23.23;;;;;;;9.25;77.80;95058.81;5062960;28;20057;-80
2022/11/11 02:03:40;;;;;;;40.80;22.40;;;;;;;9.30;77.51;95053.47;5062624;28;20047;-80
2022/11/11 02:06:07;;;;;;;46.80;22.52;;;;;;;9.28;77.73;95058.28;5062708;28;20028;-80
2022/11/11 02:08:36;;;;;;;48.63;24.27;;;;;;;9.24;77.74;95055.34;5062876;28;20223;-81
2022/11/11 02:11:15;;;;;;;45.03;24.85;;;;;;;9.24;77.39;95060.69;5062647;28;20025;-81
2022/11/11 02:16:27;;;;;;;48.92;24.75;;;;;;;9.17;77.83;95060.16;5062705;28;20032;-81
2022/11/11 02:18:54;;;;;;;47.45;23.92;;;;;;;9.14;77.74;95058.06;5062835;28;20025;-81
2022/11/11 02:21:29;;;;;;;46.92;24.35;;;;;;;9.14;77.83;95065.22;5062892;28;20095;-81
2022/11/11 02:24:07;;;;;;;46.25;22.67;;;;;;;9.01;78.23;95056.00;5062815;28;20044;-81
2022/11/11 02:26:35;;;;;;;48.78;24.05;;;;;;;9.00;78.75;95060.53;5062831;28;20220;-82
2022/11/11 02:29:03;;;;;;;45.53;23.15;;;;;;;8.93;79.28;95060.00;5062637;28;20237;-81
2022/11/11 02:31:28;;;;;;;45.35;23.13;;;;;;;8.96;79.18;95059.47;5062682;28;20104;-81
2022/11/11 02:33:54;;;;;;;46.58;23.90;;;;;;;8.91;79.49;95056.03;5062657;28;20020;-81
2022/11/11 02:36:20;;;;;;;43.70;23.20;;;;;;;8.97;79.18;95055.75;5062645;28;20021;-81
2022/11/11 02:38:46;;;;;;;39.13;21.52;;;;;;;8.96;79.30;95048.84;5062842;28;20218;-81
2022/11/11 02:43:56;;;;;;;44.42;20.92;;;;;;;9.14;78.97;95059.91;5062507;28;20211;-81
2022/11/11 02:46:21;;;;;;;38.13;20.75;;;;;;;9.17;78.79;95062.84;5062657;28;20021;-80
2022/11/11 02:48:46;;;;;;;44.10;20.48;;;;;;;9.26;78.73;95057.75;5061561;28;20020;-80
2022/11/11 02:51:12;;;;;;;40.20;20.58;;;;;;;9.33;78.58;95058.22;5062566;28;20337;-81
2022/11/11 02:53:37;;;;;;;44.78;20.80;;;;;;;9.37;78.40;95056.59;5062327;28;20025;-81
2022/11/11 02:56:03;;;;;;;30.27;18.13;;;;;;;9.41;78.29;95062.19;5062517;28;20021;-81
2022/11/11 02:58:29;;;;;;;35.95;19.63;;;;;;;9.47;78.44;95058.41;5062232;28;20056;-81
2022/11/11 03:00:54;;;;;;;32.70;19.05;;;;;;;9.52;78.32;95058.34;5062425;28;20021;-80
2022/11/11 03:03:19;;;;;;;33.88;18.85;;;;;;;9.59;78.43;95068.72;5061460;28;20028;-80
2022/11/11 03:05:45;;;;;;;37.28;19.92;;;;;;;9.67;78.64;95078.78;5062347;28;20021;-79
2022/11/11 03:08:11;;;;;;;43.13;21.08;;;;;;;9.68;78.78;95064.38;5062449;28;20387;-79
2022/11/11 03:10:36;;;;;;;38.88;19.88;;;;;;;9.77;78.31;95057.41;5062001;28;20027;-78
2022/11/11 03:13:02;;;;;;;33.15;18.60;;;;;;;9.82;78.09;95060.00;5062584;28;20020;-79
2022/11/11 03:15:27;;;;;;;31.90;18.30;;;;;;;9.87;78.48;95066.38;5063377;28;20345;-81
2022/11/11 03:17:53;;;;;;;37.15;19.13;;;;;;;9.95;78.32;95063.91;5066055;28;20025;-81
2022/11/11 03:23:07;;;;;;;34.45;18.90;;;;;;;10.06;78.33;95069.94;5065933;28;20031;-81
2022/11/11 03:25:39;;;;;;;31.13;17.95;;;;;;;10.10;78.16;95064.88;5066008;28;20025;-81
2022/11/11 03:28:18;;;;;;;31.67;18.65;;;;;;;10.12;78.04;95068.03;5065914;28;20032;-81
2022/11/11 03:30:45;;;;;;;29.83;17.58;;;;;;;10.16;77.99;95064.53;5065686;28;20021;-81
2022/11/11 03:33:12;;;;;;;29.73;17.67;;;;;;;10.19;78.03;95063.97;5065791;28;20307;-81
2022/11/11 03:35:38;;;;;;;31.13;18.33;;;;;;;10.27;77.72;95061.78;5065771;28;20017;-81
2022/11/11 03:38:14;;;;;;;34.65;18.20;;;;;;;10.26;77.51;95066.31;5065466;28;20024;-81
2022/11/11 03:40:51;;;;;;;31.73;17.90;;;;;;;10.25;77.96;95056.72;5065737;28;20287;-80
2022/11/11 03:43:18;;;;;;;35.45;18.42;;;;;;;10.24;78.06;95055.13;5065659;28;20036;-80
2022/11/11 03:45:44;;;;;;;35.85;18.85;;;;;;;10.31;77.65;95068.16;5064362;28;20017;-80
2022/11/11 03:48:11;;;;;;;37.22;20.40;;;;;;;10.24;77.91;95063.91;5065330;28;20021;-80
2022/11/11 03:50:36;;;;;;;31.55;18.30;;;;;;;10.25;77.85;95060.16;5065498;28;20043;-80
2022/11/11 03:53:02;;;;;;;28.55;16.98;;;;;;;10.27;78.23;95065.22;5065381;28;20307;-80
2022/11/11 03:55:28;;;;;;;30.58;17.63;;;;;;;10.20;78.32;95065.56;5065479;28;20051;-80
2022/11/11 03:57:53;;;;;;;36.58;20.60;;;;;;;10.22;78.87;95078.59;5064989;28;20048;-80
2022/11/11 04:00:24;;;;;;;35.75;18.17;;;;;;;10.15;79.60;95073.59;5065431;28;20037;-80
2022/11/11 04:11:08;;;;;;;37.20;19.13;;;;;;;10.07;80.62;95054.75;5065010;28;20100;-79
2022/11/11 04:16:19;;;;;;;38.17;20.02;;;;;;;10.10;80.15;95067.53;5065165;28;20036;-80
2022/11/11 04:21:43;;;;;;;33.72;17.52;;;;;;;10.04;79.96;95061.44;5064835;28;20214;-80
2022/11/11 04:26:56;;;;;;;33.67;19.95;;;;;;;10.16;79.26;95053.09;5063885;28;20031;-79
2022/11/11 04:29:28;;;;;;;34.20;19.95;;;;;;;10.21;79.07;95056.47;5064576;28;20056;-79
2022/11/11 04:34:44;;;;;;;38.17;20.10;;;;;;;10.25;78.72;95070.03;5064533;28;20086;-78
2022/11/11 04:37:10;;;;;;;40.35;21.85;;;;;;;10.24;78.91;95071.13;5064555;28;20017;-78
2022/11/11 04:42:21;;;;;;;27.98;17.20;;;;;;;10.17;78.45;95074.09;5064696;28;20035;-78
2022/11/11 04:47:30;;;;;;;24.92;14.43;;;;;;;10.09;78.18;95072.03;5064388;28;20219;-78
2022/11/11 04:49:56;;;;;;;26.70;16.23;;;;;;;10.19;78.17;95071.94;5064239;28;20029;-79
2022/11/11 04:52:27;;;;;;;24.77;15.32;;;;;;;10.13;78.01;95078.41;5064420;28;20029;-78
2022/11/11 04:57:46;;;;;;;28.90;16.40;;;;;;;10.07;78.17;95086.72;5063896;28;20149;-77
2022/11/11 05:00:17;;;;;;;31.77;17.25;;;;;;;10.17;77.88;95091.97;5063999;28;20021;-77
2022/11/11 05:05:28;;;;;;;33.08;17.15;;;;;;;10.13;78.01;95085.59;5063938;28;20349;-79
2022/11/11 05:10:38;;;;;;;31.65;18.45;;;;;;;10.20;77.57;95078.88;5063764;28;20380;-78
2022/11/11 05:21:21;;;;;;;34.67;19.77;;;;;;;10.18;77.83;95081.03;5063924;28;20090;-79
2022/11/11 05:26:31;;;;;;;37.22;17.00;;;;;;;10.16;77.47;95088.50;5063563;28;20100;-79
2022/11/11 05:28:56;;;;;;;27.63;14.90;;;;;;;10.15;76.96;95088.78;5063403;28;20017;-80
2022/11/11 05:31:22;;;;;;;37.10;18.92;;;;;;;10.20;77.01;95075.44;5063540;28;20017;-80
2022/11/11 05:33:47;;;;;;;32.75;19.73;;;;;;;10.23;77.06;95074.84;5063419;28;20246;-80
2022/11/11 05:36:13;;;;;;;30.33;16.75;;;;;;;10.18;76.54;95083.69;5063247;28;20020;-80
2022/11/11 05:38:38;;;;;;;32.92;19.10;;;;;;;10.28;76.60;95098.00;5063182;28;20044;-80
2022/11/11 05:41:04;;;;;;;32.83;17.90;;;;;;;10.29;76.38;95091.59;5063378;28;20009;-80
2022/11/11 05:43:29;;;;;;;28.00;16.08;;;;;;;10.30;75.91;95099.34;5063350;28;20047;-80
2022/11/11 05:45:55;;;;;;;39.30;18.58;;;;;;;10.36;75.88;95094.75;5063310;28;20021;-81
2022/11/11 05:48:20;;;;;;;36.45;20.45;;;;;;;10.33;77.19;95116.63;5063377;28;20254;-81
2022/11/11 05:50:46;;;;;;;42.72;22.65;;;;;;;10.28;77.64;95116.63;5063158;28;20037;-81
2022/11/11 05:53:11;;;;;;;50.08;21.77;;;;;;;10.19;78.27;95111.91;5063053;28;20067;-80
2022/11/11 05:55:36;;;;;;;45.95;22.98;;;;;;;10.16;78.46;95111.69;5063090;28;20203;-81
2022/11/11 05:58:02;;;;;;;42.08;21.55;;;;;;;10.11;78.48;95119.72;5061853;28;20112;-81
2022/11/11 06:00:28;;;;;;;46.15;23.17;;;;;;;10.11;77.93;95131.16;5063200;28;20023;-81
2022/11/11 06:02:53;;;;;;;40.42;21.00;;;;;;;10.15;78.39;95126.09;5063059;28;20021;-80
2022/11/11 06:05:19;;;;;;;33.47;15.85;;;;;;;10.06;77.13;95133.88;5063383;28;20017;-81
2022/11/11 06:07:44;;;;;;;35.08;17.45;;;;;;;10.14;77.31;95143.16;5063020;28;20246;-80
2022/11/11 06:13:08;;;;;;;37.45;20.27;;;;;;;10.22;77.87;95138.00;5063079;28;20070;-80
2022/11/11 06:15:35;;;;;;;33.10;18.98;;;;;;;10.21;77.31;95148.94;5062930;28;20250;-81
2022/11/11 06:18:03;;;;;;;42.70;20.50;;;;;;;10.22;77.62;95151.34;5062851;28;20044;-81
2022/11/11 06:20:29;;;;;;;35.20;18.75;;;;;;;10.23;78.12;95154.78;5062943;28;20044;-81
2022/11/11 06:22:57;;;;;;;46.15;20.60;;;;;;;10.24;78.29;95167.06;5062923;28;20311;-81
2022/11/11 06:28:16;;;;;;;47.67;22.95;;;;;;;10.20;78.63;95172.13;5062878;28;20024;-80
2022/11/11 06:30:41;;;;;;;46.53;22.80;;;;;;;10.12;79.10;95175.41;5062718;28;20029;-81
2022/11/11 06:33:08;;;;;;;37.83;20.90;;;;;;;10.10;79.18;95168.75;5062737;28;20037;-80
2022/11/11 06:35:35;;;;;;;40.80;22.30;;;;;;;10.12;79.16;95178.06;5062689;28;20028;-79
2022/11/11 06:38:04;;;;;;;36.90;21.92;;;;;;;10.10;79.23;95185.53;5062678;28;20020;-80
2022/11/11 06:40:30;;;;;;;46.92;23.92;;;;;;;10.07;79.53;95178.06;5062473;28;20018;-80
2022/11/11 06:42:59;;;;;;;49.90;24.05;;;;;;;10.09;79.27;95191.91;5062703;28;20021;-80
2022/11/11 06:45:26;;;;;;;46.47;22.02;;;;;;;10.13;79.28;95198.28;5062478;28;20096;-80
2022/11/11 06:47:52;;;;;;;49.00;24.23;;;;;;;10.08;79.60;95197.53;5061249;28;20020;-78
2022/11/11 06:50:18;;;;;;;43.28;24.20;;;;;;;10.03;79.62;95198.34;5061963;28;20120;-77
2022/11/11 06:52:43;;;;;;;47.10;23.95;;;;;;;10.09;79.49;95196.47;5066450;28;20089;-78
2022/11/11 06:55:09;;;;;;;47.10;22.40;;;;;;;10.09;79.19;95202.56;5066549;28;20079;-77
2022/11/11 06:57:35;;;;;;;48.22;24.75;;;;;;;10.05;79.74;95196.22;5066154;28;20053;-78
2022/11/11 07:00:01;;;;;;;39.67;22.88;;;;;;;10.09;80.18;95202.56;5066018;28;20029;-78
2022/11/11 07:02:27;;;;;;;43.80;23.83;;;;;;;10.08;79.82;95195.66;5066423;28;20047;-78
2022/11/11 07:04:52;;;;;;;45.65;21.85;;;;;;;10.02;80.17;95192.25;5066593;28;20025;-78
2022/11/11 07:07:17;;;;;;;42.60;22.67;;;;;;;9.93;80.92;95193.09;5066540;28;20055;-78
2022/11/11 07:09:43;;;;;;;47.80;23.30;;;;;;;9.95;81.39;95190.94;5065948;28;20029;-78
2022/11/11 07:12:08;;;;;;;45.53;23.60;;;;;;;9.94;81.33;95194.69;5066245;28;20039;-76
2022/11/11 07:14:34;;;;;;;39.35;22.25;;;;;;;9.90;82.46;95198.97;5066205;28;20267;-75
2022/11/11 07:16:59;;;;;;;53.88;21.67;;;;;;;9.83;82.62;95205.41;5065959;28;20261;-74
2022/11/11 07:19:25;;;;;;;40.95;21.05;;;;;;;9.79;82.54;95199.03;5065828;28;20028;-78
2022/11/11 07:21:50;;;;;;;32.08;17.20;;;;;;;9.58;81.82;95208.97;5065007;28;20342;-75
2022/11/11 07:24:15;;;;;;;26.25;15.10;;;;;;;9.60;81.40;95211.38;5065999;28;20031;-75
2022/11/11 07:26:41;;;;;;;31.88;16.25;;;;;;;9.52;81.55;95217.25;5065858;28;20056;-75
2022/11/11 07:29:07;;;;;;;28.92;14.50;;;;;;;9.33;82.31;95225.06;5065722;28;20037;-75
2022/11/11 07:31:51;;;;;;;34.47;17.73;;;;;;;9.32;83.21;95226.13;5065665;28;20047;-83
2022/11/11 07:34:17;;;;;;;27.85;14.90;;;;;;;9.27;82.15;95234.91;5065910;28;20021;-87
2022/11/11 07:36:42;;;;;;;26.65;14.40;;;;;;;9.20;82.29;95234.41;5065855;28;20021;-88
2022/11/11 07:39:07;;;;;;;30.27;14.88;;;;;;;9.20;82.23;95229.09;5065850;28;20303;-77
2022/11/11 07:41:33;;;;;;;31.17;15.00;;;;;;;9.16;82.98;95228.00;5065506;28;20090;-76
2022/11/11 07:43:58;;;;;;;29.77;14.63;;;;;;;9.19;82.35;95236.25;5065396;28;20092;-77
2022/11/11 07:46:24;;;;;;;27.15;15.55;;;;;;;9.15;82.55;95237.88;5063956;28;20371;-77
2022/11/11 07:48:50;;;;;;;24.75;14.02;;;;;;;9.14;82.24;95235.47;5065517;28;20027;-77
2022/11/11 07:51:15;;;;;;;30.90;14.93;;;;;;;9.15;82.42;95243.19;5065288;28;20323;-81
2022/11/11 07:53:41;;;;;;;27.90;14.80;;;;;;;9.16;82.44;95241.31;5065120;28;20211;-82
2022/11/11 07:56:24;;;;;;;24.73;13.55;;;;;;;9.20;82.21;95242.41;5065414;28;20048;-82
2022/11/11 07:58:50;;;;;;;24.80;13.63;;;;;;;9.21;82.04;95246.63;5065138;28;20155;-82
2022/11/11 08:01:15;;;;;;;25.48;14.13;;;;;;;9.22;81.80;95254.34;5064769;28;20033;-82
2022/11/11 08:03:48;;;;;;;24.48;13.93;;;;;;;9.23;81.72;95249.81;5064083;28;20092;-81
2022/11/11 08:06:23;;;;;;;25.55;13.38;;;;;;;9.23;82.07;95255.94;5064968;28;20017;-81
2022/11/11 08:08:48;;;;;;;29.90;15.30;;;;;;;9.21;81.94;95252.75;5065714;28;20031;-81
2022/11/11 08:11:15;;;;;;;26.95;13.90;;;;;;;9.23;81.93;95252.50;5065368;28;20021;-82
2022/11/11 08:13:42;;;;;;;31.45;14.35;;;;;;;9.30;81.81;95255.69;5064874;28;20016;-81
2022/11/11 08:16:09;;;;;;;26.95;14.43;;;;;;;9.33;81.46;95257.78;5064844;28;20028;-74
2022/11/11 08:18:35;;;;;;;28.08;14.80;;;;;;;9.36;81.20;95261.75;5064702;28;20017;-81
2022/11/11 08:21:02;;;;;;;29.42;14.45;;;;;;;9.41;81.10;95267.06;5064754;28;20112;-80
2022/11/11 08:23:31;;;;;;;27.20;14.63;;;;;;;9.48;80.94;95272.91;5065953;28;20242;-78
2022/11/11 08:26:05;;;;;;;24.90;14.27;;;;;;;9.31;80.74;95261.78;5064961;28;20032;-78
2022/11/11 08:28:33;;;;;;;32.30;14.82;;;;;;;9.28;81.24;95268.44;5064550;28;20029;-75
2022/11/11 08:31:00;;;;;;;29.52;14.40;;;;;;;9.33;81.02;95270.28;5064508;28;20139;-78
2022/11/11 08:33:26;;;;;;;29.23;15.02;;;;;;;9.32;81.29;95258.84;5064652;28;20246;-79
2022/11/11 08:35:53;;;;;;;24.83;13.38;;;;;;;9.33;80.99;95264.97;5063604;28;20048;-76
2022/11/11 08:38:19;;;;;;;26.90;13.65;;;;;;;9.36;80.89;95270.56;5064639;28;20032;-75
2022/11/11 08:40:44;;;;;;;27.00;13.00;;;;;;;9.43;81.15;95267.59;5064681;28;20179;-75
2022/11/11 08:43:10;;;;;;;26.10;12.77;;;;;;;9.48;80.56;95269.44;5064287;28;20028;-76
2022/11/11 08:45:35;;;;;;;22.95;12.77;;;;;;;9.51;80.17;95275.03;5064480;28;20021;-76
2022/11/11 08:48:01;;;;;;;25.98;13.63;;;;;;;9.54;79.94;95263.03;5064317;28;20021;-76
2022/11/11 08:50:26;;;;;;;26.88;12.63;;;;;;;9.62;79.84;95270.47;5064297;28;20051;-77
2022/11/11 08:52:52;;;;;;;26.75;12.45;;;;;;;9.68;79.64;95276.56;5064469;28;20029;-76
2022/11/11 08:55:18;;;;;;;23.92;12.93;;;;;;;9.78;79.04;95264.00;5064467;28;20226;-77
2022/11/11 08:57:44;;;;;;;22.42;12.65;;;;;;;9.86;78.65;95267.97;5063778;28;20036;-76
2022/11/11 09:00:11;;;;;;;21.50;11.40;;;;;;;9.90;77.79;95274.34;5064173;28;20021;-76
2022/11/11 09:02:37;;;;;;;16.15;10.52;;;;;;;9.95;76.93;95263.69;5064060;28;20052;-76
2022/11/11 09:05:03;;;;;;;21.15;10.73;;;;;;;10.01;76.70;95259.09;5064161;28;20094;-78
2022/11/11 09:07:29;;;;;;;19.15;10.68;;;;;;;10.04;76.56;95267.34;5063867;28;20029;-78
2022/11/11 09:09:55;;;;;;;18.08;9.68;;;;;;;10.08;75.91;95253.47;5064039;28;20051;-77
2022/11/11 09:12:20;;;;;;;17.40;8.73;;;;;;;10.17;75.95;95257.94;5064187;28;20192;-79
2022/11/11 09:14:47;;;;;;;20.23;10.18;;;;;;;10.20;74.93;95254.72;5063583;28;20032;-78
2022/11/11 09:17:12;;;;;;;21.17;9.57;;;;;;;10.27;74.68;95256.28;5063812;28;20215;-76
2022/11/11 09:19:38;;;;;;;17.55;9.07;;;;;;;10.31;74.60;95254.69;5063645;28;20025;-77
2022/11/11 09:22:03;;;;;;;20.35;10.77;;;;;;;10.29;74.48;95262.13;5063671;28;20318;-78
2022/11/11 09:24:29;;;;;;;15.85;9.13;;;;;;;10.32;74.21;95253.59;5063693;28;20091;-77
2022/11/11 09:26:54;;;;;;;18.70;9.52;;;;;;;10.33;74.09;95264.00;5063617;28;20025;-77
2022/11/11 09:29:20;;;;;;;19.38;10.73;;;;;;;10.33;73.99;95261.34;5063720;28;20035;-77
2022/11/11 09:31:46;;;;;;;15.55;8.80;;;;;;;10.39;73.59;95260.22;5063450;28;20024;-77
2022/11/11 09:34:12;;;;;;;17.00;8.60;;;;;;;10.43;73.57;95265.81;5063441;28;20060;-77
2022/11/11 09:36:37;;;;;;;14.25;8.70;;;;;;;10.45;73.59;95258.34;5063509;28;20024;-76
2022/11/11 09:39:03;;;;;;;15.55;8.50;;;;;;;10.55;73.75;95254.81;5063566;28;20025;-76
2022/11/11 09:41:56;;;;;;;21.08;10.35;;;;;;;10.60;72.96;95260.91;5063521;28;20047;-77
2022/11/11 09:44:40;;;;;;;18.88;9.20;;;;;;;10.66;72.62;95252.84;5063187;28;20090;-76
2022/11/11 09:47:49;;;;;;;17.65;9.38;;;;;;;10.68;72.39;95245.38;5063285;28;20134;-76
2022/11/11 09:50:20;;;;;;;15.77;8.52;;;;;;;10.75;72.02;95251.19;5054914;28;20029;-77
2022/11/11 09:53:10;;;;;;;12.73;7.78;;;;;;;10.70;71.65;95240.53;5062891;28;20028;-77
2022/11/11 09:55:40;;;;;;;15.77;9.13;;;;;;;10.73;71.58;95242.66;5063146;28;20032;-75
2022/11/11 09:58:13;;;;;;;14.25;8.80;;;;;;;10.77;70.79;95249.03;5063015;28;20056;-75
2022/11/11 10:00:44;;;;;;;15.73;7.70;;;;;;;10.64;70.62;95245.94;5061778;28;20329;-77
2022/11/11 10:03:09;;;;;;;13.43;8.30;;;;;;;10.51;71.41;95243.88;5062974;28;20196;-76
2022/11/11 10:05:44;;;;;;;14.75;9.45;;;;;;;10.47;71.97;95242.84;5062675;28;20104;-76
2022/11/11 10:08:14;;;;;;;17.38;10.27;;;;;;;10.39;71.94;95243.44;5062720;28;20424;-76
2022/11/11 10:10:51;;;;;;;16.63;8.35;;;;;;;10.44;71.62;95225.56;5062949;28;20265;-75
2022/11/11 10:13:27;;;;;;;16.23;8.50;;;;;;;10.48;71.51;95240.97;5063036;28;20025;-74
2022/11/11 10:16:15;;;;;;;15.18;8.07;;;;;;;10.42;70.89;95233.03;5062930;28;20075;-74
2022/11/11 10:19:12;;;;;;;21.70;9.88;;;;;;;10.50;70.09;95236.97;5062867;28;20196;-74
2022/11/11 10:21:43;;;;;;;18.30;8.95;;;;;;;10.59;69.80;95242.50;5062686;28;20025;-75
2022/11/11 10:24:16;;;;;;;12.80;7.22;;;;;;;10.49;69.46;95232.72;5062764;28;20024;-75
2022/11/11 10:26:51;;;;;;;15.50;6.93;;;;;;;10.50;69.31;95234.31;5062097;28;20028;-75
2022/11/11 10:29:18;;;;;;;12.70;7.90;;;;;;;10.51;69.52;95233.22;5062654;28;20036;-78
2022/11/11 10:32:13;;;;;;;14.27;9.07;;;;;;;10.58;69.41;95231.06;5062723;28;20223;-75
2022/11/11 10:34:39;;;;;;;12.45;8.43;;;;;;;10.62;68.96;95232.09;5062539;28;20029;-75
2022/11/11 10:37:20;;;;;;;13.02;8.40;;;;;;;10.64;69.18;95218.44;5062785;28;20040;-86
2022/11/11 10:39:59;;;;;;;12.57;7.13;;;;;;;10.70;69.14;95221.88;5062882;28;20063;-88
2022/11/11 10:42:24;;;;;;;11.93;7.47;;;;;;;10.78;68.94;95230.06;5062897;28;20017;-85
2022/11/11 10:44:58;;;;;;;16.92;7.47;;;;;;;10.77;68.36;95225.81;5062821;28;20016;-88
2022/11/11 10:47:49;;;;;;;13.27;7.45;;;;;;;10.80;68.06;95229.78;5063033;28;20087;-90
2022/11/11 10:50:28;;;;;;;11.27;7.05;;;;;;;10.72;67.67;95225.06;5062429;28;20033;-92
2022/11/11 10:53:12;;;;;;;12.88;7.03;;;;;;;10.69;67.43;95220.31;5063275;28;20029;-95
2022/11/11 10:55:43;;;;;;;11.45;7.03;;;;;;;10.62;67.72;95216.09;5063657;28;20047;-91
2022/11/11 10:58:20;;;;;;;10.48;6.05;;;;;;;10.70;67.31;95227.22;5060304;28;20049;-94
2022/11/11 11:00:48;;;;;;;11.98;6.80;;;;;;;10.65;66.71;95217.41;5062648;28;20044;-91
2022/11/11 11:03:23;;;;;;;10.07;5.65;;;;;;;10.58;66.55;95231.06;5063410;28;20015;-91
2022/11/11 11:06:18;;;;;;;10.05;6.00;;;;;;;10.56;65.98;95211.88;5062997;28;20017;-90
2022/11/11 11:08:52;;;;;;;9.80;6.00;;;;;;;10.62;65.91;95207.28;5063693;28;20310;-93
2022/11/11 11:12:21;;;;;;;9.43;5.78;;;;;;;10.67;65.52;95203.78;5063115;28;20025;-93
2022/11/11 11:14:52;;;;;;;10.55;5.88;;;;;;;10.72;64.84;95199.19;5045309;28;20100;-89
2022/11/11 11:17:29;;;;;;;9.38;5.70;;;;;;;10.88;64.46;95205.19;5063497;28;20025;-89
2022/11/11 11:20:06;;;;;;;11.27;5.45;;;;;;;10.94;63.42;95196.03;5062733;28;20115;-92
2022/11/11 11:22:45;;;;;;;8.65;5.38;;;;;;;11.02;62.99;95191.97;5061991;28;20036;-87
2022/11/11 11:25:12;;;;;;;9.65;5.85;;;;;;;11.13;62.79;95189.97;5062762;28;20037;-95
2022/11/11 11:27:37;;;;;;;12.15;5.93;;;;;;;11.24;61.90;95183.47;5063122;28;20056;-93
2022/11/11 11:30:32;;;;;;;9.82;5.30;;;;;;;11.25;61.27;95177.03;5062836;28;20315;-84
2022/11/11 11:33:02;;;;;;;10.15;5.60;;;;;;;11.34;60.91;95187.91;5062530;28;20024;-88
2022/11/11 11:35:44;;;;;;;13.95;5.45;;;;;;;11.28;60.26;95178.38;5062469;28;20009;-85
2022/11/11 11:38:15;;;;;;;9.15;5.75;;;;;;;11.33;60.77;95184.41;5065668;28;20046;-86
2022/11/11 11:40:52;;;;;;;10.45;5.53;;;;;;;11.37;60.00;95176.63;5065406;28;20108;-88
2022/11/11 11:43:35;;;;;;;9.02;4.80;;;;;;;11.45;59.44;95163.44;5065582;28;20021;-85
2022/11/11 11:46:04;;;;;;;;;;;;;;;11.51;59.53;95166.84;5066026;28;20032;-84
2022/11/11 11:48:44;;;;;;;9.38;4.63;;;;;;;11.45;57.51;95168.00;5065591;28;19968;-85
2022/11/11 11:51:31;;;;;;;8.20;4.55;;;;;;;11.51;57.68;95161.50;5065468;28;20039;-86
2022/11/11 11:54:26;;;;;;;10.30;5.20;;;;;;;11.63;57.38;95164.56;5065920;28;20024;-88
2022/11/11 11:56:57;;;;;;;14.57;4.90;;;;;;;11.66;57.48;95168.53;5065802;28;20024;-84
2022/11/11 11:59:40;;;;;;;8.98;4.78;;;;;;;11.71;57.14;95171.13;5065352;28;20063;-90
2022/11/11 12:02:36;;;;;;;9.15;5.07;;;;;;;11.87;56.61;95163.72;5065753;28;20021;-88
2022/11/11 12:05:16;;;;;;;8.75;4.75;;;;;;;11.83;56.27;95166.16;5065276;28;20219;-88
2022/11/11 12:07:41;;;;;;;6.78;4.43;;;;;;;11.77;56.43;95159.31;5065275;28;20032;-90
2022/11/11 12:10:07;;;;;;;7.82;4.88;;;;;;;11.80;56.61;95169.41;5065425;28;20096;-85
2022/11/11 12:12:38;;;;;;;9.30;4.75;;;;;;;11.81;57.09;95159.53;5065159;28;20025;-87
2022/11/11 12:15:31;;;;;;;8.88;5.53;;;;;;;11.85;56.89;95169.34;5064391;28;20029;-87
2022/11/11 12:17:56;;;;;;;10.52;5.45;;;;;;;11.78;56.29;95162.75;5064916;28;20025;-89
2022/11/11 12:20:43;;;;;;;7.07;3.88;;;;;;;11.69;56.52;95151.16;5064989;28;20051;-86
2022/11/11 12:23:38;;;;;;;7.72;4.30;;;;;;;11.69;57.04;95151.94;5063856;28;20235;-84
2022/11/11 12:26:09;;;;;;;8.52;4.72;;;;;;;11.74;57.42;95154.53;5064720;28;20146;-85
2022/11/11 12:29:02;;;;;;;10.20;5.33;;;;;;;11.73;57.30;95142.25;5063585;28;20020;-83
2022/11/11 12:31:42;;;;;;;8.50;5.03;;;;;;;11.75;56.87;95140.09;5064766;28;20268;-86
2022/11/11 12:34:11;;;;;;;9.65;5.70;;;;;;;11.72;57.03;95138.00;5064678;28;20017;-83
2022/11/11 12:37:17;;;;;;;9.10;4.93;;;;;;;11.84;56.86;95140.22;5064871;28;20027;-89
2022/11/11 12:40:11;;;;;;;8.05;4.70;;;;;;;11.83;56.98;95131.44;5043972;28;20112;-87
2022/11/11 12:42:58;;;;;;;7.95;4.53;;;;;;;11.90;56.51;95136.44;5063802;28;20107;-90
2022/11/11 12:45:30;;;;;;;9.05;5.00;;;;;;;11.92;56.67;95138.81;5064370;28;20322;-83
2022/11/11 12:48:17;;;;;;;11.65;5.68;;;;;;;11.89;56.87;95139.41;5063386;28;20025;-84
2022/11/11 12:51:07;;;;;;;12.13;5.72;;;;;;;11.91;56.27;95145.25;5064362;28;20087;-87
2022/11/11 12:53:57;;;;;;;14.63;5.43;;;;;;;11.88;56.21;95143.13;5064412;28;20058;-89